createdAt,value
2022-12-03T00:00:41.481Z,6.87
2022-12-03T00:03:08.681Z,6.70
2022-12-03T00:05:35.799Z,6.57
2022-12-03T00:08:02.937Z,7.10
2022-12-03T00:10:30.357Z,6.17
2022-12-03T00:12:57.407Z,6.67
2022-12-03T00:15:24.442Z,7.47
2022-12-03T00:17:51.524Z,6.93
2022-12-03T00:20:23.124Z,7.17
2022-12-03T00:22:50.688Z,7.07
2022-12-03T00:25:18.201Z,7.27
2022-12-03T00:27:45.300Z,7.00
2022-12-03T00:30:12.612Z,7.07
2022-12-03T00:32:39.781Z,8.23
2022-12-03T00:35:07.215Z,6.90
2022-12-03T00:37:35.232Z,6.20
2022-12-03T00:40:02.803Z,6.57
2022-12-03T00:42:29.921Z,6.90
2022-12-03T00:44:57.021Z,7.37
2022-12-03T00:47:24.277Z,7.40
2022-12-03T00:49:51.511Z,6.60
2022-12-03T00:52:18.655Z,6.83
2022-12-03T00:54:45.886Z,7.20
2022-12-03T00:57:12.949Z,7.57
2022-12-03T00:59:39.961Z,7.30
2022-12-03T01:02:07.129Z,6.97
2022-12-03T01:04:34.246Z,6.87
2022-12-03T01:07:01.483Z,7.23
2022-12-03T01:09:28.772Z,7.53
2022-12-03T01:11:55.810Z,8.63
2022-12-03T01:14:22.871Z,7.83
2022-12-03T01:16:50.006Z,8.00
2022-12-03T01:19:17.677Z,7.37
2022-12-03T01:21:45.526Z,7.47
2022-12-03T01:24:12.678Z,6.50
2022-12-03T01:26:39.819Z,7.03
2022-12-03T01:29:07.149Z,8.40
2022-12-03T01:31:53.094Z,7.00
2022-12-03T01:34:20.137Z,8.10
2022-12-03T01:36:47.207Z,8.17
2022-12-03T01:39:14.260Z,7.60
2022-12-03T01:41:41.633Z,8.17
2022-12-03T01:44:16.077Z,7.30
2022-12-03T01:46:43.529Z,8.63
2022-12-03T01:49:21.787Z,7.10
2022-12-03T01:51:49.913Z,9.60
2022-12-03T01:54:18.946Z,10.30
2022-12-03T01:56:46.862Z,7.93
2022-12-03T01:59:16.086Z,10.07
2022-12-03T02:01:43.473Z,8.20
2022-12-03T02:04:14.742Z,7.07
2022-12-03T02:06:42.865Z,8.93
2022-12-03T02:09:13.481Z,8.70
2022-12-03T02:11:42.822Z,9.33
2022-12-03T02:14:11.988Z,8.83
2022-12-03T02:16:40.176Z,8.77
2022-12-03T02:19:11.730Z,9.73
2022-12-03T02:21:54.833Z,8.47
2022-12-03T02:24:36.632Z,11.53
2022-12-03T02:27:03.968Z,10.83
2022-12-03T02:29:31.468Z,8.33
2022-12-03T02:31:58.637Z,9.10
2022-12-03T02:34:36.182Z,9.73
2022-12-03T02:37:04.919Z,8.67
2022-12-03T02:39:32.771Z,9.37
2022-12-03T02:42:18.480Z,8.47
2022-12-03T02:44:45.582Z,9.53
2022-12-03T02:47:12.853Z,9.00
2022-12-03T02:49:40.197Z,8.63
2022-12-03T02:52:07.295Z,9.40
2022-12-03T02:54:34.525Z,9.40
2022-12-03T02:57:01.716Z,9.73
2022-12-03T02:59:28.917Z,10.37
2022-12-03T03:01:56.153Z,11.77
2022-12-03T03:04:24.820Z,11.37
2022-12-03T03:06:52.375Z,12.00
2022-12-03T03:09:20.266Z,12.97
2022-12-03T03:11:47.491Z,14.43
2022-12-03T03:14:14.621Z,12.07
2022-12-03T03:16:41.932Z,11.60
2022-12-03T03:19:09.364Z,15.50
2022-12-03T03:21:36.424Z,12.40
2022-12-03T03:24:03.501Z,17.63
2022-12-03T03:26:30.573Z,10.93
2022-12-03T03:28:59.969Z,12.90
2022-12-03T03:31:27.079Z,16.30
2022-12-03T03:33:54.252Z,15.27
2022-12-03T03:36:21.621Z,11.90
2022-12-03T03:38:48.961Z,13.43
2022-12-03T03:41:16.231Z,12.67
2022-12-03T03:43:44.419Z,14.20
2022-12-03T03:46:11.853Z,13.27
2022-12-03T03:48:39.564Z,16.47
2022-12-03T03:51:09.369Z,13.53
2022-12-03T03:53:41.247Z,11.83
2022-12-03T03:56:09.553Z,14.13
2022-12-03T03:58:36.892Z,12.07
2022-12-03T04:01:04.063Z,10.67
2022-12-03T04:03:31.360Z,13.50
2022-12-03T04:05:58.658Z,13.87
2022-12-03T04:08:25.790Z,14.27
2022-12-03T04:11:11.868Z,13.97
2022-12-03T04:13:38.919Z,15.80
2022-12-03T04:16:06.114Z,14.50
2022-12-03T04:18:45.459Z,17.70
2022-12-03T04:21:32.178Z,13.93
2022-12-03T04:23:59.579Z,12.27
2022-12-03T04:26:45.380Z,13.37
2022-12-03T04:29:13.020Z,14.57
2022-12-03T04:31:59.034Z,12.50
2022-12-03T04:34:45.397Z,14.47
2022-12-03T04:37:12.687Z,12.83
2022-12-03T04:39:40.019Z,15.13
2022-12-03T04:42:07.317Z,15.00
2022-12-03T04:44:37.544Z,14.40
2022-12-03T04:47:18.519Z,15.60
2022-12-03T04:49:46.866Z,14.00
2022-12-03T04:52:15.034Z,15.63
2022-12-03T04:54:42.159Z,16.50
2022-12-03T04:57:09.571Z,14.07
2022-12-03T04:59:37.068Z,13.13
2022-12-03T05:02:04.940Z,15.20
2022-12-03T05:04:32.084Z,13.90
2022-12-03T05:06:59.221Z,15.97
2022-12-03T05:09:26.290Z,14.00
2022-12-03T05:11:53.339Z,18.10
2022-12-03T05:14:20.697Z,16.17
2022-12-03T05:16:47.897Z,15.53
2022-12-03T05:19:15.004Z,15.43
2022-12-03T05:21:42.063Z,15.90
2022-12-03T05:24:09.140Z,17.30
2022-12-03T05:26:36.377Z,12.50
2022-12-03T05:29:03.513Z,13.50
2022-12-03T05:31:33.691Z,15.23
2022-12-03T05:34:00.792Z,14.90
2022-12-03T05:36:27.852Z,15.87
2022-12-03T05:38:54.961Z,14.10
2022-12-03T05:41:40.769Z,15.40
2022-12-03T05:44:07.954Z,15.63
2022-12-03T05:46:35.178Z,16.03
2022-12-03T05:49:02.407Z,17.40
2022-12-03T05:51:29.439Z,18.07
2022-12-03T05:53:56.569Z,14.17
2022-12-03T05:56:23.744Z,14.87
2022-12-03T05:58:50.852Z,15.87
2022-12-03T06:01:17.920Z,13.07
2022-12-03T06:03:45.137Z,17.03
2022-12-03T06:06:12.325Z,15.23
2022-12-03T06:08:39.537Z,15.37
2022-12-03T06:11:06.598Z,17.03
2022-12-03T06:13:33.667Z,18.20
2022-12-03T06:16:00.814Z,16.23
2022-12-03T06:18:27.932Z,13.63
2022-12-03T06:20:55.241Z,15.37
2022-12-03T06:23:22.331Z,16.83
2022-12-03T06:25:49.395Z,12.53
2022-12-03T06:28:16.492Z,15.77
2022-12-03T06:30:43.621Z,14.17
2022-12-03T06:33:10.753Z,14.33
2022-12-03T06:35:37.883Z,15.00
2022-12-03T06:38:05.349Z,14.73
2022-12-03T06:40:32.525Z,15.70
2022-12-03T06:42:59.627Z,17.33
2022-12-03T06:45:26.710Z,17.10
2022-12-03T06:47:53.782Z,15.10
2022-12-03T06:50:20.974Z,12.90
2022-12-03T06:52:48.029Z,14.07
2022-12-03T06:55:15.133Z,16.07
2022-12-03T06:57:42.188Z,17.17
2022-12-03T07:00:09.683Z,16.37
2022-12-03T07:02:37.072Z,15.37
2022-12-03T07:05:04.906Z,16.50
2022-12-03T07:07:32.231Z,15.07
2022-12-03T07:09:59.719Z,14.33
2022-12-03T07:12:26.789Z,17.67
2022-12-03T07:14:54.068Z,16.17
2022-12-03T07:17:21.332Z,19.67
2022-12-03T07:19:48.486Z,16.73
2022-12-03T07:22:15.541Z,18.63
2022-12-03T07:24:42.708Z,19.97
2022-12-03T07:27:09.931Z,28.13
2022-12-03T07:29:37.141Z,20.53
2022-12-03T07:32:04.277Z,18.10
2022-12-03T07:34:31.368Z,18.37
2022-12-03T07:36:58.677Z,17.27
2022-12-03T07:39:25.783Z,17.77
2022-12-03T07:41:52.999Z,18.53
2022-12-03T07:44:20.284Z,18.70
2022-12-03T07:46:47.451Z,19.67
2022-12-03T07:49:14.590Z,21.70
2022-12-03T07:51:41.852Z,23.10
2022-12-03T07:54:09.376Z,18.90
2022-12-03T07:56:36.478Z,18.03
2022-12-03T07:59:03.593Z,20.43
2022-12-03T08:01:30.705Z,20.33
2022-12-03T08:03:57.932Z,19.33
2022-12-03T08:06:24.968Z,22.57
2022-12-03T08:08:52.057Z,15.70
2022-12-03T08:11:19.112Z,20.33
2022-12-03T08:13:46.392Z,17.87
2022-12-03T08:16:18.206Z,17.43
2022-12-03T08:18:46.217Z,18.23
2022-12-03T08:21:17.871Z,16.17
2022-12-03T08:23:45.103Z,17.13
2022-12-03T08:26:26.238Z,17.03
2022-12-03T08:28:53.649Z,18.87
2022-12-03T08:31:32.347Z,18.53
2022-12-03T08:34:14.544Z,18.40
2022-12-03T08:36:41.636Z,20.03
2022-12-03T08:39:28.141Z,20.33
2022-12-03T08:42:16.117Z,17.80
2022-12-03T08:44:43.216Z,18.30
2022-12-03T08:47:10.255Z,18.27
2022-12-03T08:49:37.598Z,18.37
2022-12-03T08:52:11.952Z,20.40
2022-12-03T08:54:39.231Z,23.53
2022-12-03T08:57:24.878Z,20.97
2022-12-03T08:59:55.165Z,20.53
2022-12-03T09:02:27.496Z,23.23
2022-12-03T09:04:54.837Z,24.80
2022-12-03T09:07:22.105Z,21.03
2022-12-03T09:09:49.165Z,20.20
2022-12-03T09:12:16.195Z,23.40
2022-12-03T09:14:43.308Z,22.43
2022-12-03T09:17:10.696Z,21.90
2022-12-03T09:19:42.716Z,21.37
2022-12-03T09:22:13.266Z,20.50
2022-12-03T09:24:40.504Z,19.10
2022-12-03T09:27:07.678Z,22.13
2022-12-03T09:29:34.794Z,18.33
2022-12-03T09:32:02.206Z,19.93
2022-12-03T09:34:29.333Z,20.93
2022-12-03T09:36:56.705Z,20.77
2022-12-03T09:39:23.787Z,19.73
2022-12-03T09:41:50.878Z,18.83
2022-12-03T09:44:18.494Z,19.20
2022-12-03T09:46:46.664Z,17.23
2022-12-03T09:49:16.226Z,16.73
2022-12-03T09:51:44.475Z,18.73
2022-12-03T09:54:14.783Z,16.40
2022-12-03T09:56:41.899Z,16.43
2022-12-03T09:59:15.974Z,15.03
2022-12-03T10:01:46.861Z,16.73
2022-12-03T10:04:14.116Z,15.87
2022-12-03T10:06:45.838Z,14.97
2022-12-03T10:09:14.583Z,14.80
2022-12-03T10:11:41.654Z,16.87
2022-12-03T10:14:11.317Z,17.23
2022-12-03T10:16:40.219Z,14.63
2022-12-03T10:19:07.405Z,17.73
2022-12-03T10:21:38.529Z,17.97
2022-12-03T10:24:17.960Z,17.60
2022-12-03T10:26:45.774Z,15.20
2022-12-03T10:29:25.844Z,14.57
2022-12-03T10:31:59.949Z,16.87
2022-12-03T10:34:31.303Z,16.40
2022-12-03T10:37:12.634Z,17.80
2022-12-03T10:39:58.895Z,16.57
2022-12-03T10:42:27.350Z,17.40
2022-12-03T10:45:06.589Z,18.27
2022-12-03T10:47:33.815Z,15.57
2022-12-03T10:50:05.627Z,16.67
2022-12-03T10:52:32.901Z,19.30
2022-12-03T10:55:00.082Z,20.70
2022-12-03T10:57:27.232Z,17.43
2022-12-03T10:59:54.338Z,17.50
2022-12-03T11:02:23.076Z,16.00
2022-12-03T11:04:51.008Z,18.27
2022-12-03T11:07:20.058Z,15.87
2022-12-03T11:09:48.712Z,17.57
2022-12-03T11:12:20.745Z,16.90
2022-12-03T11:15:05.176Z,18.23
2022-12-03T11:17:47.593Z,17.83
2022-12-03T11:20:22.989Z,18.47
2022-12-03T11:22:54.441Z,17.27
2022-12-03T11:25:27.486Z,18.63
2022-12-03T11:28:12.897Z,25.13
2022-12-03T11:30:52.334Z,25.50
2022-12-03T11:33:36.058Z,19.30
2022-12-03T11:36:06.212Z,22.70
2022-12-03T11:38:40.822Z,21.00
2022-12-03T11:41:18.741Z,22.30
2022-12-03T11:43:57.652Z,23.77
2022-12-03T11:46:37.050Z,25.63
2022-12-03T11:49:23.615Z,21.97
2022-12-03T11:51:51.087Z,23.27
2022-12-03T11:54:19.339Z,25.43
2022-12-03T11:56:48.971Z,22.53
2022-12-03T11:59:17.217Z,24.93
2022-12-03T12:01:44.664Z,23.67
2022-12-03T12:04:31.931Z,20.50
2022-12-03T12:06:59.253Z,22.80
2022-12-03T12:09:44.973Z,25.33
2022-12-03T12:12:19.374Z,25.27
2022-12-03T12:14:46.426Z,23.77
2022-12-03T12:17:30.054Z,25.80
2022-12-03T12:20:15.963Z,22.00
2022-12-03T12:22:43.172Z,24.10
2022-12-03T12:25:30.543Z,25.90
2022-12-03T12:27:57.840Z,23.33
2022-12-03T12:30:25.111Z,28.47
2022-12-03T12:32:53.582Z,23.33
2022-12-03T12:35:27.842Z,25.53
2022-12-03T12:38:03.449Z,25.63
2022-12-03T12:40:32.407Z,27.63
2022-12-03T12:43:03.159Z,27.97
2022-12-03T12:45:35.754Z,24.97
2022-12-03T12:48:21.984Z,24.67
2022-12-03T12:50:51.657Z,23.17
2022-12-03T12:53:21.513Z,22.93
2022-12-03T12:55:49.768Z,23.70
2022-12-03T12:58:20.767Z,21.60
2022-12-03T13:00:51.282Z,24.43
2022-12-03T13:03:19.781Z,27.83
2022-12-03T13:05:49.289Z,26.60
2022-12-03T13:08:16.499Z,26.83
2022-12-03T13:10:43.671Z,25.97
2022-12-03T13:13:16.840Z,33.27
2022-12-03T13:15:54.610Z,27.10
2022-12-03T13:18:26.680Z,25.33
2022-12-03T13:20:54.804Z,22.43
2022-12-03T13:23:26.063Z,22.53
2022-12-03T13:26:07.142Z,28.53
2022-12-03T13:28:41.981Z,27.37
2022-12-03T13:31:23.153Z,24.80
2022-12-03T13:34:12.459Z,23.83
2022-12-03T13:36:43.074Z,20.97
2022-12-03T13:39:13.879Z,27.13
2022-12-03T13:42:01.133Z,22.50
2022-12-03T13:44:30.003Z,21.33
2022-12-03T13:46:57.163Z,28.60
2022-12-03T13:49:24.817Z,24.97
2022-12-03T13:51:51.958Z,22.83
2022-12-03T13:54:23.547Z,23.07
2022-12-03T13:56:51.048Z,32.63
2022-12-03T13:59:22.935Z,27.57
2022-12-03T14:01:53.019Z,25.47
2022-12-03T14:04:20.308Z,26.53
2022-12-03T14:06:47.493Z,26.03
2022-12-03T14:09:14.683Z,28.60
2022-12-03T14:12:00.427Z,29.70
2022-12-03T14:14:27.622Z,28.53
2022-12-03T14:16:59.672Z,27.00
2022-12-03T14:19:27.348Z,27.00
2022-12-03T14:21:54.626Z,25.37
2022-12-03T14:24:21.734Z,28.23
2022-12-03T14:26:48.848Z,29.00
2022-12-03T14:29:16.305Z,32.53
2022-12-03T14:31:43.433Z,32.50
2022-12-03T14:34:10.542Z,27.67
2022-12-03T14:36:37.604Z,29.53
2022-12-03T14:39:04.746Z,28.10
2022-12-03T14:41:50.686Z,31.90
2022-12-03T14:44:18.192Z,29.27
2022-12-03T14:46:45.232Z,25.83
2022-12-03T14:49:12.339Z,25.77
2022-12-03T14:51:39.640Z,23.43
2022-12-03T14:54:06.791Z,21.70
2022-12-03T14:56:33.870Z,25.27
2022-12-03T14:59:00.960Z,23.07
2022-12-03T15:01:28.111Z,25.67
2022-12-03T15:03:55.367Z,27.33
2022-12-03T15:06:22.438Z,24.20
2022-12-03T15:08:49.551Z,25.37
2022-12-03T15:11:16.607Z,23.13
2022-12-03T15:13:43.826Z,23.27
2022-12-03T15:16:11.052Z,24.10
2022-12-03T15:18:38.142Z,18.97
2022-12-03T15:21:05.640Z,20.23
2022-12-03T15:23:32.816Z,21.13
2022-12-03T15:25:59.933Z,19.93
2022-12-03T15:28:27.637Z,19.40
2022-12-03T15:30:54.798Z,23.77
2022-12-03T15:33:21.946Z,24.53
2022-12-03T15:35:49.192Z,20.37
2022-12-03T15:38:16.266Z,20.13
2022-12-03T15:40:43.534Z,19.13
2022-12-03T15:43:10.585Z,20.00
2022-12-03T15:45:37.981Z,20.10
2022-12-03T15:48:05.198Z,19.50
2022-12-03T15:50:37.026Z,22.10
2022-12-03T15:53:07.056Z,18.93
2022-12-03T15:55:34.145Z,17.63
2022-12-03T15:58:06.606Z,19.27
2022-12-03T16:00:33.706Z,19.10
2022-12-03T16:03:00.857Z,20.30
2022-12-03T16:05:27.939Z,21.63
2022-12-03T16:07:55.017Z,20.53
2022-12-03T16:10:22.145Z,20.50
2022-12-03T16:12:49.234Z,19.97
2022-12-03T16:15:16.431Z,20.47
2022-12-03T16:17:43.537Z,18.20
2022-12-03T16:20:10.816Z,21.00
2022-12-03T16:22:37.860Z,17.97
2022-12-03T16:25:07.047Z,19.83
2022-12-03T16:27:37.045Z,19.00
2022-12-03T16:30:04.691Z,20.57
2022-12-03T16:32:31.765Z,19.13
2022-12-03T16:34:58.879Z,22.30
2022-12-03T16:37:25.964Z,20.33
2022-12-03T16:39:53.439Z,20.93
2022-12-03T16:42:20.733Z,20.17
2022-12-03T16:45:04.900Z,20.03
2022-12-03T16:47:34.341Z,22.93
2022-12-03T16:50:05.678Z,23.13
2022-12-03T16:52:32.741Z,21.37
2022-12-03T16:54:59.815Z,24.70
2022-12-03T16:57:31.937Z,24.50
2022-12-03T17:00:01.024Z,20.83
2022-12-03T17:02:28.376Z,21.03
2022-12-03T17:04:55.546Z,23.17
2022-12-03T17:07:22.650Z,21.57
2022-12-03T17:09:49.884Z,24.40
2022-12-03T17:12:16.960Z,23.90
2022-12-03T17:14:44.073Z,24.17
2022-12-03T17:17:11.289Z,25.97
2022-12-03T17:19:38.347Z,22.00
2022-12-03T17:22:05.524Z,23.97
2022-12-03T17:24:32.628Z,22.50
2022-12-03T17:26:59.667Z,23.67
2022-12-03T17:29:26.798Z,21.87
2022-12-03T17:31:53.959Z,20.83
2022-12-03T17:34:21.159Z,19.40
2022-12-03T17:36:48.273Z,19.37
2022-12-03T17:39:15.574Z,26.83
2022-12-03T17:41:42.628Z,19.97
2022-12-03T17:44:12.063Z,16.93
2022-12-03T17:46:39.511Z,18.70
2022-12-03T17:49:06.632Z,19.37
2022-12-03T17:51:33.779Z,21.03
2022-12-03T17:54:00.875Z,18.97
2022-12-03T17:56:27.962Z,20.77
2022-12-03T17:58:55.128Z,20.07
2022-12-03T18:01:22.226Z,20.60
2022-12-03T18:03:49.376Z,21.17
2022-12-03T18:06:16.627Z,16.97
2022-12-03T18:08:43.751Z,20.70
2022-12-03T18:11:10.893Z,20.93
2022-12-03T18:13:37.989Z,21.07
2022-12-03T18:16:05.216Z,18.00
2022-12-03T18:18:32.365Z,18.70
2022-12-03T18:21:04.190Z,18.03
2022-12-03T18:23:32.825Z,21.43
2022-12-03T18:26:00.400Z,18.67
2022-12-03T18:28:27.604Z,22.20
2022-12-03T18:30:54.921Z,18.73
2022-12-03T18:33:23.509Z,20.30
2022-12-03T18:35:53.857Z,19.77
2022-12-03T18:38:21.414Z,17.97
2022-12-03T18:40:50.299Z,20.00
2022-12-03T18:43:17.470Z,20.70
2022-12-03T18:45:44.554Z,20.47
2022-12-03T18:48:12.728Z,18.77
2022-12-03T18:50:40.439Z,17.17
2022-12-03T18:53:09.963Z,19.10
2022-12-03T18:55:37.135Z,18.63
2022-12-03T18:58:04.293Z,16.97
2022-12-03T19:00:31.883Z,16.87
2022-12-03T19:03:03.744Z,19.27
2022-12-03T19:05:32.653Z,21.63
2022-12-03T19:08:00.057Z,18.43
2022-12-03T19:10:27.293Z,17.83
2022-12-03T19:12:54.599Z,16.33
2022-12-03T19:15:21.702Z,20.90
2022-12-03T19:17:49.469Z,20.50
2022-12-03T19:20:16.562Z,23.57
2022-12-03T19:22:43.651Z,21.33
2022-12-03T19:25:10.792Z,20.03
2022-12-03T19:27:37.941Z,17.53
2022-12-03T19:30:05.339Z,19.77
2022-12-03T19:32:32.463Z,18.00
2022-12-03T19:35:01.042Z,20.80
2022-12-03T19:37:28.156Z,22.20
2022-12-03T19:39:55.456Z,20.33
2022-12-03T19:42:22.676Z,20.93
2022-12-03T19:44:49.764Z,23.23
2022-12-03T19:47:17.814Z,23.57
2022-12-03T19:49:45.007Z,19.53
2022-12-03T19:52:12.109Z,22.53
2022-12-03T19:54:39.173Z,24.73
2022-12-03T19:57:06.218Z,25.90
2022-12-03T19:59:33.379Z,22.97
2022-12-03T20:02:00.571Z,23.53
2022-12-03T20:04:27.736Z,20.90
2022-12-03T20:06:54.814Z,23.67
2022-12-03T20:09:22.561Z,25.90
2022-12-03T20:11:51.303Z,19.67
2022-12-03T20:14:18.735Z,21.93
2022-12-03T20:16:46.127Z,20.00
2022-12-03T20:19:14.229Z,23.27
2022-12-03T20:21:41.663Z,26.17
2022-12-03T20:24:09.536Z,22.97
2022-12-03T20:26:36.637Z,23.90
2022-12-03T20:29:03.800Z,22.93
2022-12-03T20:31:32.179Z,24.50
2022-12-03T20:34:00.941Z,22.57
2022-12-03T20:36:29.478Z,25.03
2022-12-03T20:38:57.634Z,24.87
2022-12-03T20:41:24.996Z,21.50
2022-12-03T20:43:52.243Z,24.67
2022-12-03T20:46:27.471Z,21.90
2022-12-03T20:48:55.120Z,20.87
2022-12-03T20:51:24.315Z,19.97
2022-12-03T20:53:51.575Z,24.77
2022-12-03T20:56:20.454Z,19.77
2022-12-03T20:58:48.679Z,22.53
2022-12-03T21:01:20.397Z,24.40
2022-12-03T21:03:48.028Z,22.37
2022-12-03T21:06:15.823Z,25.83
2022-12-03T21:08:43.567Z,22.23
2022-12-03T21:11:12.149Z,20.47
2022-12-03T21:13:46.487Z,22.47
2022-12-03T21:16:17.778Z,22.90
2022-12-03T21:18:45.480Z,23.20
2022-12-03T21:21:13.493Z,26.20
2022-12-03T21:23:40.708Z,25.93
2022-12-03T21:26:09.184Z,25.87
2022-12-03T21:28:36.383Z,22.33
2022-12-03T21:31:04.916Z,31.60
2022-12-03T21:33:32.360Z,29.63
2022-12-03T21:36:00.085Z,33.23
2022-12-03T21:38:27.928Z,33.00
2022-12-03T21:40:55.494Z,32.27
2022-12-03T21:43:22.710Z,29.57
2022-12-03T21:45:50.274Z,24.93
2022-12-03T21:48:17.719Z,25.83
2022-12-03T21:50:45.582Z,31.17
2022-12-03T21:53:13.500Z,27.73
2022-12-03T21:55:41.443Z,28.20
2022-12-03T21:58:09.138Z,26.33
2022-12-03T22:00:36.395Z,28.43
2022-12-03T22:03:03.637Z,27.00
2022-12-03T22:05:30.855Z,25.70
2022-12-03T22:07:58.131Z,25.23
2022-12-03T22:10:25.350Z,26.00
2022-12-03T22:12:52.426Z,24.70
2022-12-03T22:15:19.789Z,27.20
2022-12-03T22:17:47.569Z,23.73
2022-12-03T22:20:14.910Z,25.10
2022-12-03T22:22:41.989Z,26.60
2022-12-03T22:25:09.226Z,36.83
2022-12-03T22:27:36.382Z,34.80
2022-12-03T22:30:03.940Z,30.70
2022-12-03T22:32:31.079Z,32.93
2022-12-03T22:34:58.148Z,26.80
2022-12-03T22:37:25.206Z,35.57
2022-12-03T22:39:52.692Z,24.47
2022-12-03T22:42:20.019Z,24.07
2022-12-03T22:44:47.133Z,22.37
2022-12-03T22:47:14.185Z,25.73
2022-12-03T22:49:41.407Z,23.90
2022-12-03T22:52:08.592Z,23.50
2022-12-03T22:54:35.779Z,23.20
2022-12-03T22:57:02.973Z,23.97
2022-12-03T22:59:30.112Z,25.97
2022-12-03T23:01:57.185Z,25.33
2022-12-03T23:04:24.322Z,27.40
2022-12-03T23:06:51.592Z,31.73
2022-12-03T23:09:18.743Z,26.17
2022-12-03T23:11:45.974Z,27.17
2022-12-03T23:14:14.094Z,38.63
2022-12-03T23:16:41.468Z,34.70
2022-12-03T23:19:08.687Z,26.47
2022-12-03T23:21:36.222Z,29.17
2022-12-03T23:24:04.776Z,29.70
2022-12-03T23:26:34.640Z,35.40
2022-12-03T23:29:01.811Z,30.20
2022-12-03T23:31:30.591Z,47.33
2022-12-03T23:33:58.027Z,38.47
2022-12-03T23:36:26.351Z,35.10
2022-12-03T23:38:53.464Z,30.30
2022-12-03T23:41:21.480Z,34.27
2022-12-03T23:43:48.658Z,33.00
2022-12-03T23:46:17.077Z,31.47
2022-12-03T23:48:45.452Z,31.17
2022-12-03T23:51:14.095Z,31.53
2022-12-03T23:53:57.305Z,28.37
2022-12-03T23:56:25.680Z,39.00
2022-12-03T23:58:52.800Z,40.00
